Terminal Aerodrome Forecast
Issued by NWS

Home | Current Version | Previous Version | Text Only | Print | Product List | Glossary On
Versions: 1 2 3 4 5 6 7 8 9 10 11 12 13 14 15 16 17 18 19
372
FTUS44 KBMX 210540
TAFANB
TAF
KANB 210540Z 2106/2206 VRB02KT 6SM BR SCT250
     FM210700 VRB02KT 5SM BR OVC010
     FM211200 VRB02KT 4SM BR VCSH OVC010
     FM211500 12005KT 4SM TSRA BR OVC020CB
     FM211800 17007KT 5SM -RA BR OVC025
     FM212200 19008KT P6SM OVC015=

USA.gov is the U.S. government's official web portal to all federal, state and local government web resources and services.